Time;durP1;ratioP1;P1;durP2;ratioP2;P2;SDS_P1;SDS_P2;PMS_P1;PMS_P2;Temp;Humidity;BMP_temperature;BMP_pressure;BME280_temperature;BME280_humidity;BME280_pressure;Samples;Min_cycle;Max_cycle;Signal;HPM_P1;HPM_P2
2022/09/10 00:01:46;;;;;;;5.20;2.88;;;;;;;16.60;100.00;99433.44;5113854;28;20051;-80
2022/09/10 00:04:14;;;;;;;3.92;2.92;;;;;;;16.60;100.00;99431.69;5113443;28;20039;-80
2022/09/10 00:06:40;;;;;;;3.75;2.85;;;;;;;16.64;100.00;99429.63;5113764;28;20345;-80
2022/09/10 00:09:06;;;;;;;5.15;3.20;;;;;;;16.66;100.00;99433.84;5113469;28;20034;-80
2022/09/10 00:11:34;;;;;;;5.68;3.28;;;;;;;16.61;100.00;99420.22;5113124;28;20019;-80
2022/09/10 00:14:01;;;;;;;5.75;3.38;;;;;;;16.66;100.00;99427.75;5113510;27;20024;-80
2022/09/10 00:16:28;;;;;;;6.95;3.45;;;;;;;16.60;100.00;99415.03;5113701;28;20484;-80
2022/09/10 00:18:53;;;;;;;4.95;3.00;;;;;;;16.66;100.00;99425.13;5113331;28;20377;-80
2022/09/10 00:21:19;;;;;;;4.70;3.30;;;;;;;16.66;100.00;99419.88;5113361;28;20019;-80
2022/09/10 00:23:46;;;;;;;4.80;3.28;;;;;;;16.60;100.00;99405.41;5113312;28;20031;-80
2022/09/10 00:26:20;;;;;;;3.60;2.70;;;;;;;16.66;100.00;99406.72;5113332;28;20472;-80
2022/09/10 00:28:46;;;;;;;3.15;2.55;;;;;;;16.57;100.00;99399.53;5113550;28;20054;-80
2022/09/10 00:31:12;;;;;;;3.95;2.38;;;;;;;16.60;100.00;99407.16;5113083;28;20031;-80
2022/09/10 00:33:38;;;;;;;3.25;2.60;;;;;;;16.57;100.00;99402.16;5113308;28;20030;-80
2022/09/10 00:36:20;;;;;;;2.50;2.30;;;;;;;16.56;100.00;99400.47;5112970;28;20403;-80
2022/09/10 00:38:46;;;;;;;3.67;2.20;;;;;;;16.50;100.00;99390.41;5113304;28;20364;-80
2022/09/10 00:41:12;;;;;;;2.80;2.10;;;;;;;16.48;100.00;99385.28;5112973;28;20072;-80
2022/09/10 00:44:05;;;;;;;2.47;2.28;;;;;;;16.51;100.00;99390.28;5113221;28;20019;-80
2022/09/10 00:46:42;;;;;;;4.07;2.35;;;;;;;16.48;100.00;99385.28;5070163;28;20028;-80
2022/09/10 00:49:16;;;;;;;5.10;2.20;;;;;;;16.39;100.00;99362.28;5069669;28;20035;-80
2022/09/10 00:51:44;;;;;;;2.22;2.00;;;;;;;16.37;100.00;99358.97;5069840;28;20037;-80
2022/09/10 00:54:10;;;;;;;2.70;1.77;;;;;;;16.31;100.00;99360.25;5069897;28;20090;-80
2022/09/10 00:56:36;;;;;;;2.50;1.92;;;;;;;16.40;100.00;99377.13;5069840;28;20016;-80
2022/09/10 00:59:04;;;;;;;3.78;1.90;;;;;;;16.37;100.00;99370.31;5069474;28;20111;-80
2022/09/10 01:01:32;;;;;;;4.30;2.50;;;;;;;16.29;100.00;99350.81;5069669;28;20432;-80
2022/09/10 01:03:58;;;;;;;4.18;2.40;;;;;;;16.32;100.00;99358.47;5069375;28;20037;-80
2022/09/10 01:06:23;;;;;;;3.63;2.20;;;;;;;16.18;100.00;99341.09;5069875;28;20090;-80
2022/09/10 01:08:48;;;;;;;2.17;1.95;;;;;;;16.19;100.00;99348.03;5052928;28;20031;-80
2022/09/10 01:11:25;;;;;;;3.80;2.55;;;;;;;16.14;100.00;99350.19;5069714;28;20024;-80
2022/09/10 01:14:08;;;;;;;4.38;2.42;;;;;;;16.12;100.00;99354.69;5069564;28;20120;-80
2022/09/10 01:17:18;;;;;;;2.50;2.08;;;;;;;16.12;100.00;99349.44;5069549;28;20033;-80
2022/09/10 01:20:24;;;;;;;3.30;2.15;;;;;;;16.12;100.00;99347.66;5009998;28;20029;-80
2022/09/10 01:23:10;;;;;;;2.63;2.08;;;;;;;16.00;100.00;99343.28;5027478;28;20036;-80
2022/09/10 01:25:44;;;;;;;3.80;2.33;;;;;;;15.94;100.00;99344.59;5069605;28;20063;-80
2022/09/10 01:28:21;;;;;;;3.55;2.10;;;;;;;15.81;100.00;99332.47;5069198;28;20143;-80
2022/09/10 01:30:53;;;;;;;3.50;1.92;;;;;;;15.82;100.00;99334.16;5069434;28;20024;-80
2022/09/10 01:33:25;;;;;;;3.08;1.70;;;;;;;15.88;100.00;99347.66;5069139;28;20040;-80
2022/09/10 01:36:05;;;;;;;2.63;2.05;;;;;;;15.89;100.00;99351.97;5069348;28;20071;-80
2022/09/10 01:38:34;;;;;;;3.72;1.80;;;;;;;15.87;100.00;99348.63;5069690;28;20024;-80
2022/09/10 01:41:01;;;;;;;3.72;2.17;;;;;;;15.83;100.00;99334.03;5069001;28;20036;-80
2022/09/10 01:43:26;;;;;;;3.70;2.45;;;;;;;15.86;100.00;99348.75;5069273;28;20031;-80
2022/09/10 01:46:29;;;;;;;3.35;2.00;;;;;;;15.82;100.00;99349.91;5069284;28;20028;-80
2022/09/10 01:49:20;;;;;;;3.65;2.20;;;;;;;15.83;100.00;99347.16;5069285;28;20016;-80
2022/09/10 01:52:16;;;;;;;2.40;2.20;;;;;;;15.80;100.00;99333.41;5069418;28;20086;-80
2022/09/10 01:54:55;;;;;;;5.43;2.47;;;;;;;15.80;100.00;99330.78;5110867;28;20043;-80
2022/09/10 01:57:28;;;;;;;4.32;2.35;;;;;;;15.82;100.00;99336.78;5111791;28;20024;-80
2022/09/10 02:00:02;;;;;;;4.82;2.67;;;;;;;15.87;100.00;99346.00;5112283;28;20028;-80
2022/09/10 02:02:35;;;;;;;3.15;2.60;;;;;;;15.87;100.00;99339.91;5112049;28;20039;-80
2022/09/10 02:05:03;;;;;;;4.60;2.95;;;;;;;15.88;100.00;99344.19;5112130;28;20567;-80
2022/09/10 02:07:30;;;;;;;3.50;2.63;;;;;;;15.87;100.00;99337.28;5112083;28;20020;-80
2022/09/10 02:09:58;;;;;;;7.32;3.65;;;;;;;15.89;100.00;99330.97;5111999;28;20023;-80
2022/09/10 02:12:23;;;;;;;4.70;2.97;;;;;;;15.89;100.00;99328.34;5111736;28;20072;-80
2022/09/10 02:14:50;;;;;;;3.25;2.85;;;;;;;15.90;100.00;99329.19;5112170;28;20053;-80
2022/09/10 02:17:16;;;;;;;3.92;2.70;;;;;;;15.87;100.00;99324.16;5111711;28;20471;-80
2022/09/10 02:19:45;;;;;;;3.47;2.88;;;;;;;15.82;100.00;99329.72;5112128;28;20034;-80
2022/09/10 02:22:11;;;;;;;4.47;3.00;;;;;;;15.80;100.00;99326.41;5111661;28;20431;-80
2022/09/10 02:24:37;;;;;;;4.53;3.17;;;;;;;15.68;100.00;99301.88;5111988;28;20051;-80
2022/09/10 02:27:04;;;;;;;5.78;3.50;;;;;;;15.75;100.00;99319.78;5111856;28;20012;-80
2022/09/10 02:29:30;;;;;;;3.65;2.97;;;;;;;15.60;100.00;99312.06;5111978;28;20035;-80
2022/09/10 02:31:55;;;;;;;4.65;3.60;;;;;;;15.60;100.00;99311.22;5111998;28;20024;-80
2022/09/10 02:34:20;;;;;;;3.30;2.60;;;;;;;15.52;100.00;99309.16;5113703;28;20039;-80
2022/09/10 02:36:46;;;;;;;3.40;3.10;;;;;;;15.51;100.00;99307.47;5115909;28;20032;-80
2022/09/10 02:39:11;;;;;;;3.72;3.08;;;;;;;15.55;100.00;99305.44;5115213;28;20026;-80
2022/09/10 02:41:40;;;;;;;4.05;2.90;;;;;;;15.50;100.00;99297.91;5115837;28;20016;-80
2022/09/10 02:44:05;;;;;;;3.90;2.95;;;;;;;15.49;100.00;99306.75;5115336;28;20023;-80
2022/09/10 02:46:31;;;;;;;5.30;2.75;;;;;;;15.47;100.00;99298.16;5114235;28;20516;-80
2022/09/10 02:48:57;;;;;;;4.13;2.67;;;;;;;15.46;100.00;99296.47;5115289;28;20023;-80
2022/09/10 02:51:23;;;;;;;5.05;3.00;;;;;;;15.43;100.00;99305.41;5115076;28;20127;-80
2022/09/10 02:53:48;;;;;;;2.58;2.38;;;;;;;15.42;100.00;99318.63;5115124;28;20104;-80
2022/09/10 02:56:14;;;;;;;3.00;2.60;;;;;;;15.36;100.00;99306.78;5115151;28;20032;-80
2022/09/10 02:58:39;;;;;;;3.08;2.47;;;;;;;15.39;100.00;99324.94;5115176;28;20024;-80
2022/09/10 03:01:13;;;;;;;3.17;2.50;;;;;;;15.45;100.00;99331.53;5114982;28;20019;-80
2022/09/10 03:03:39;;;;;;;5.13;2.90;;;;;;;15.40;100.00;99329.22;5115072;28;20111;-80
2022/09/10 03:06:05;;;;;;;2.63;2.13;;;;;;;15.42;100.00;99323.88;5114645;28;20092;-80
2022/09/10 03:08:31;;;;;;;4.03;2.47;;;;;;;15.44;100.00;99322.00;5114774;28;20016;-80
2022/09/10 03:10:58;;;;;;;2.75;2.38;;;;;;;15.42;100.00;99316.00;5115096;28;20037;-80
2022/09/10 03:13:26;;;;;;;5.03;3.00;;;;;;;15.46;100.00;99317.44;5114738;28;20015;-80
2022/09/10 03:15:52;;;;;;;4.10;2.60;;;;;;;15.44;100.00;99312.31;5114913;28;20483;-80
2022/09/10 03:18:18;;;;;;;5.50;2.75;;;;;;;15.41;100.00;99317.78;5114631;28;20099;-80
2022/09/10 03:20:43;;;;;;;2.88;2.50;;;;;;;15.42;100.00;99321.25;5114653;28;20430;-80
2022/09/10 03:23:10;;;;;;;2.80;2.55;;;;;;;15.39;100.00;99306.56;5114591;28;20024;-80
2022/09/10 03:25:35;;;;;;;3.03;2.50;;;;;;;15.43;100.00;99317.69;5114773;28;20023;-80
2022/09/10 03:28:00;;;;;;;4.30;2.55;;;;;;;15.38;100.00;99310.16;5114997;28;20019;-80
2022/09/10 03:30:26;;;;;;;3.30;2.80;;;;;;;15.39;100.00;99301.31;5114402;28;20023;-80
2022/09/10 03:32:53;;;;;;;5.35;4.85;;;;;;;15.40;100.00;99300.38;5114521;28;20020;-80
2022/09/10 03:35:18;;;;;;;5.10;3.03;;;;;;;15.42;100.00;99303.75;5114212;28;20114;-80
2022/09/10 03:37:44;;;;;;;3.08;2.70;;;;;;;15.45;100.00;99298.25;5114786;28;20039;-80
2022/09/10 03:40:10;;;;;;;7.28;2.72;;;;;;;15.41;100.00;99291.53;5114459;28;20032;-80
2022/09/10 03:42:35;;;;;;;5.00;3.17;;;;;;;15.42;100.00;99289.75;5114401;27;20029;-80
2022/09/10 03:45:01;;;;;;;3.35;2.95;;;;;;;15.35;100.00;99283.28;5113423;28;20456;-80
2022/09/10 03:47:26;;;;;;;5.03;3.00;;;;;;;15.36;100.00;99293.66;5114086;27;20024;-80
2022/09/10 03:49:52;;;;;;;3.75;3.00;;;;;;;15.38;100.00;99289.16;5114119;28;20026;-80
2022/09/10 03:52:17;;;;;;;5.50;3.42;;;;;;;15.37;100.00;99290.09;5113736;28;20069;-80
2022/09/10 03:54:44;;;;;;;4.63;3.65;;;;;;;15.31;100.00;99293.16;5114080;28;20030;-80
2022/09/10 03:57:09;;;;;;;7.40;4.75;;;;;;;15.19;100.00;99283.53;5113802;28;20031;-80
2022/09/10 03:59:35;;;;;;;7.43;4.03;;;;;;;15.16;100.00;99291.63;5113999;28;20019;-80
2022/09/10 04:02:01;;;;;;;6.90;3.92;;;;;;;15.18;100.00;99287.13;5113793;28;20141;-80
2022/09/10 04:04:28;;;;;;;4.15;3.75;;;;;;;15.17;100.00;99281.03;5113466;28;20477;-80
2022/09/10 04:06:53;;;;;;;3.72;3.00;;;;;;;15.16;100.00;99281.97;5113759;28;20347;-80
2022/09/10 04:09:19;;;;;;;4.28;3.17;;;;;;;15.10;100.00;99277.16;5113546;28;20114;-80
2022/09/10 04:11:44;;;;;;;4.68;3.40;;;;;;;15.17;100.00;99280.22;5113830;28;20468;-80
2022/09/10 04:14:10;;;;;;;5.57;2.80;;;;;;;15.18;100.00;99284.50;5113515;28;20035;-80
2022/09/10 04:16:36;;;;;;;3.97;2.70;;;;;;;15.13;100.00;99273.50;5113672;28;20023;-80
2022/09/10 04:19:01;;;;;;;2.90;2.53;;;;;;;15.20;100.00;99272.94;5113594;28;20069;-80
2022/09/10 04:21:26;;;;;;;3.38;2.67;;;;;;;15.23;100.00;99274.50;5113154;28;20519;-80
2022/09/10 04:23:55;;;;;;;5.97;2.80;;;;;;;15.16;100.00;99268.00;5113679;28;20023;-80
2022/09/10 04:26:21;;;;;;;3.47;2.80;;;;;;;15.23;100.00;99277.13;5113285;27;20482;-80
2022/09/10 04:28:47;;;;;;;4.68;3.20;;;;;;;15.19;100.00;99276.50;5113428;28;20108;-80
2022/09/10 04:31:13;;;;;;;4.43;3.35;;;;;;;15.20;100.00;99286.06;5113189;28;20090;-80
2022/09/10 04:33:38;;;;;;;6.47;3.28;;;;;;;15.16;100.00;99276.72;5113305;28;20021;-80
2022/09/10 04:36:04;;;;;;;8.15;3.38;;;;;;;15.17;100.00;99280.22;5113226;28;20065;-80
2022/09/10 04:38:31;;;;;;;4.10;3.55;;;;;;;15.15;100.00;99274.22;5113236;28;20030;-80
2022/09/10 04:40:59;;;;;;;7.80;3.80;;;;;;;15.15;100.00;99279.47;5113242;28;20073;-80
2022/09/10 04:43:24;;;;;;;4.88;3.58;;;;;;;15.13;100.00;99276.97;5112885;28;20026;-80
2022/09/10 04:45:51;;;;;;;5.88;3.65;;;;;;;15.18;100.00;99290.59;5113091;28;20015;-80
2022/09/10 04:48:17;;;;;;;7.20;3.70;;;;;;;15.14;100.00;99278.63;5110469;28;20054;-80
2022/09/10 04:50:43;;;;;;;7.47;3.25;;;;;;;15.20;100.00;99290.47;5113190;28;20033;-80
2022/09/10 04:53:08;;;;;;;2.83;2.63;;;;;;;15.28;100.00;99298.63;5113083;28;20039;-80
2022/09/10 04:55:35;;;;;;;3.20;2.88;;;;;;;15.31;100.00;99302.81;5112898;28;20016;-80
2022/09/10 04:58:00;;;;;;;6.10;3.03;;;;;;;15.28;100.00;99301.25;5112854;28;20064;-80
2022/09/10 05:00:25;;;;;;;2.67;2.47;;;;;;;15.27;100.00;99301.38;5112776;28;20027;-80
2022/09/10 05:02:51;;;;;;;3.30;3.00;;;;;;;15.32;100.00;99312.38;5112702;28;20058;-80
2022/09/10 05:05:16;;;;;;;3.28;2.70;;;;;;;15.32;100.00;99305.31;5112113;28;20051;-80
2022/09/10 05:07:42;;;;;;;5.32;2.83;;;;;;;15.36;100.00;99316.44;5112707;28;20019;-80
2022/09/10 05:10:09;;;;;;;3.15;2.40;;;;;;;15.35;100.00;99312.16;5111458;28;20023;-80
2022/09/10 05:12:37;;;;;;;5.50;2.60;;;;;;;15.31;100.00;99298.41;5112400;28;20035;-80
2022/09/10 05:15:03;;;;;;;7.25;2.80;;;;;;;15.32;100.00;99302.69;5112737;28;20604;-80
2022/09/10 05:17:28;;;;;;;3.05;2.60;;;;;;;15.38;100.00;99307.53;5112318;28;20073;-80
2022/09/10 05:19:54;;;;;;;4.82;2.53;;;;;;;15.36;100.00;99304.16;5112847;28;20058;-80
2022/09/10 05:22:20;;;;;;;5.32;3.17;;;;;;;15.33;100.00;99296.50;5112351;28;20054;-80
2022/09/10 05:24:46;;;;;;;4.97;3.03;;;;;;;15.32;100.00;99301.88;5112621;28;20412;-80
2022/09/10 05:27:11;;;;;;;4.45;3.00;;;;;;;15.28;100.00;99298.63;5112515;28;20157;-80
2022/09/10 05:29:37;;;;;;;3.33;3.00;;;;;;;15.24;100.00;99305.03;5112241;28;20024;-80
2022/09/10 05:32:02;;;;;;;5.22;3.42;;;;;;;15.25;100.00;99308.50;5112359;28;20106;-80
2022/09/10 05:34:28;;;;;;;4.97;3.15;;;;;;;15.23;100.00;99304.19;5112063;28;20027;-80
2022/09/10 05:36:55;;;;;;;3.88;3.30;;;;;;;15.32;100.00;99309.75;5112837;28;20011;-80
2022/09/10 05:39:20;;;;;;;4.35;3.08;;;;;;;15.28;100.00;99303.88;5112149;28;20045;-80
2022/09/10 05:41:46;;;;;;;9.68;3.63;;;;;;;15.32;100.00;99307.94;5112256;28;20660;-80
2022/09/10 05:44:11;;;;;;;7.45;3.40;;;;;;;15.32;100.00;99304.50;5112368;28;20098;-80
2022/09/10 05:46:37;;;;;;;4.18;2.97;;;;;;;15.32;100.00;99284.34;5111994;28;20047;-80
2022/09/10 05:49:02;;;;;;;3.40;3.00;;;;;;;15.40;100.00;99302.16;5112216;27;20024;-80
2022/09/10 05:51:29;;;;;;;5.85;3.22;;;;;;;15.40;100.00;99294.28;5112206;28;20015;-80
2022/09/10 05:53:56;;;;;;;6.82;2.95;;;;;;;15.40;100.00;99292.50;5112351;28;20364;-80
2022/09/10 05:56:21;;;;;;;4.45;3.17;;;;;;;15.42;100.00;99289.75;5112053;28;20105;-80
2022/09/10 05:58:47;;;;;;;3.25;2.65;;;;;;;15.43;100.00;99299.31;5112134;28;20024;-80
2022/09/10 06:01:12;;;;;;;5.20;3.08;;;;;;;15.44;100.00;99285.25;5112121;28;20019;-80
2022/09/10 06:03:39;;;;;;;3.33;2.90;;;;;;;15.55;100.00;99289.69;5111778;28;20027;-80
2022/09/10 06:06:05;;;;;;;3.38;2.97;;;;;;;15.63;100.00;99292.59;5111840;28;20062;-80
2022/09/10 06:08:30;;;;;;;5.72;2.97;;;;;;;15.62;100.00;99291.78;5112830;28;20471;-80
2022/09/10 06:11:04;;;;;;;7.43;2.92;;;;;;;15.73;100.00;99287.56;5116200;28;20032;-80
2022/09/10 06:13:30;;;;;;;5.22;2.88;;;;;;;15.80;100.00;99286.16;5115933;28;20110;-80
2022/09/10 06:15:56;;;;;;;7.05;3.15;;;;;;;15.86;100.00;99298.84;5116224;28;20028;-80
2022/09/10 06:18:22;;;;;;;3.60;2.85;;;;;;;15.87;100.00;99293.47;5115881;28;20024;-80
2022/09/10 06:20:48;;;;;;;3.30;3.00;;;;;;;15.99;100.00;99294.34;5116301;28;20517;-80
2022/09/10 06:23:18;;;;;;;5.10;3.00;;;;;;;16.17;100.00;99290.31;5115877;28;20087;-79
2022/09/10 06:25:43;;;;;;;4.68;2.70;;;;;;;16.46;100.00;99289.91;5115932;28;20038;-80
2022/09/10 06:28:11;;;;;;;5.93;3.10;;;;;;;16.57;100.00;99291.72;5115786;28;20016;-80
2022/09/10 06:30:36;;;;;;;3.47;2.97;;;;;;;16.66;100.00;99276.06;5115400;28;20019;-80
2022/09/10 06:33:01;;;;;;;4.80;2.90;;;;;;;16.92;100.00;99286.38;5115858;28;20015;-80
2022/09/10 06:35:28;;;;;;;6.70;2.80;;;;;;;17.05;100.00;99276.56;5115525;28;20019;-80
2022/09/10 06:37:53;;;;;;;3.00;2.42;;;;;;;17.17;100.00;99280.00;5115689;28;20049;-80
2022/09/10 06:40:19;;;;;;;3.55;2.42;;;;;;;17.44;100.00;99284.84;5115292;28;20031;-80
2022/09/10 06:42:44;;;;;;;2.60;2.30;;;;;;;17.94;100.00;99277.28;5115416;28;20016;-80
2022/09/10 06:45:10;;;;;;;5.15;2.67;;;;;;;18.65;100.00;99286.16;5115342;28;20054;-80
2022/09/10 06:47:36;;;;;;;5.18;2.72;;;;;;;19.08;100.00;99282.47;5115580;28;20054;-80
2022/09/10 06:50:02;;;;;;;3.53;2.35;;;;;;;19.03;100.00;99289.97;5115473;28;20030;-81
2022/09/10 06:52:28;;;;;;;2.63;2.38;;;;;;;19.28;100.00;99275.44;5112794;28;20070;-80
2022/09/10 06:54:53;;;;;;;4.43;2.30;;;;;;;19.57;100.00;99285.22;5094808;28;20515;-81
2022/09/10 06:57:18;;;;;;;2.00;1.80;;;;;;;20.92;100.00;99284.22;5094437;28;20107;-81
2022/09/10 06:59:44;;;;;;;6.32;2.38;;;;;;;21.46;94.57;99271.13;5094693;28;20031;-81
2022/09/10 07:02:10;;;;;;;2.72;1.77;;;;;;;21.44;93.26;99273.91;5094844;28;20027;-81
2022/09/10 07:04:35;;;;;;;2.33;2.00;;;;;;;21.86;92.66;99274.13;5094388;28;20032;-81
2022/09/10 07:07:01;;;;;;;4.70;1.80;;;;;;;23.02;88.41;99277.41;5095085;28;20027;-81
2022/09/10 07:09:26;;;;;;;2.55;1.70;;;;;;;23.80;84.66;99271.78;5094456;28;20742;-81
2022/09/10 07:11:52;;;;;;;2.85;1.65;;;;;;;24.54;81.46;99296.56;5094570;28;20055;-81
2022/09/10 07:14:17;;;;;;;4.03;1.90;;;;;;;24.27;78.03;99280.91;5094416;28;20368;-81
2022/09/10 07:16:43;;;;;;;3.35;1.90;;;;;;;24.11;79.80;99301.22;5094450;28;20154;-81
2022/09/10 07:19:12;;;;;;;4.47;1.90;;;;;;;23.95;80.63;99293.25;5094490;28;20449;-81
2022/09/10 07:21:38;;;;;;;3.47;1.70;;;;;;;24.64;79.84;99285.69;5093070;28;20052;-81
2022/09/10 07:24:04;;;;;;;2.10;1.58;;;;;;;27.41;72.39;99288.03;5094488;28;20020;-81
2022/09/10 07:26:30;;;;;;;3.53;1.83;;;;;;;27.60;68.14;99299.94;5094003;28;20512;-81
2022/09/10 07:28:57;;;;;;;1.67;1.45;;;;;;;26.93;68.99;99305.50;5094524;28;20099;-81
2022/09/10 07:31:28;;;;;;;6.00;2.03;;;;;;;30.55;61.13;99295.63;5094262;28;20027;-81
2022/09/10 07:33:56;;;;;;;4.13;1.90;;;;;;;34.43;52.00;99294.34;5094358;28;20020;-81
2022/09/10 07:36:22;;;;;;;2.63;1.77;;;;;;;33.77;49.97;99298.94;5093980;28;20020;-81
2022/09/10 07:38:51;;;;;;;3.67;1.70;;;;;;;31.48;53.70;99298.91;5094009;28;20035;-81
2022/09/10 07:41:17;;;;;;;2.03;1.48;;;;;;;29.12;58.77;99291.47;5093992;28;20019;-81
2022/09/10 07:43:43;;;;;;;5.78;1.70;;;;;;;29.62;58.57;99292.06;5093755;28;20031;-81
2022/09/10 07:46:18;;;;;;;3.55;1.75;;;;;;;30.62;54.83;99303.69;5094058;28;20020;-81
2022/09/10 07:48:43;;;;;;;6.82;2.10;;;;;;;28.58;58.60;99301.06;5093699;28;20024;-81
2022/09/10 07:51:10;;;;;;;5.45;1.90;;;;;;;27.12;62.32;99302.28;5093817;28;20028;-81
2022/09/10 07:53:35;;;;;;;2.25;1.83;;;;;;;29.99;58.55;99286.13;5093240;28;20461;-81
2022/09/10 07:56:03;;;;;;;4.80;1.80;;;;;;;30.73;54.21;99289.66;5106537;28;20035;-81
2022/09/10 07:58:30;;;;;;;4.38;1.55;;;;;;;30.04;55.48;99286.38;5113622;28;20360;-81
2022/09/10 08:00:56;;;;;;;2.40;1.80;;;;;;;29.52;56.30;99289.75;5128826;27;20044;-81
2022/09/10 08:03:21;;;;;;;3.13;1.52;;;;;;;28.58;58.64;99282.31;5113902;28;20444;-81
2022/09/10 08:05:47;;;;;;;2.47;1.55;;;;;;;27.75;60.95;99279.34;5113566;28;20040;-82
2022/09/10 08:08:13;;;;;;;3.38;1.90;;;;;;;26.85;63.41;99299.25;5113686;28;20019;-82
2022/09/10 08:10:39;;;;;;;2.92;1.92;;;;;;;25.97;66.10;99281.22;5113391;28;20027;-81
2022/09/10 08:13:05;;;;;;;2.88;1.75;;;;;;;25.50;67.89;99295.53;5113729;28;20019;-81
2022/09/10 08:15:30;;;;;;;1.90;1.65;;;;;;;25.19;69.60;99289.34;5112233;28;20020;-81
2022/09/10 08:17:58;;;;;;;4.18;1.85;;;;;;;25.03;69.10;99287.56;5113727;28;20026;-81
2022/09/10 08:20:25;;;;;;;3.25;1.77;;;;;;;24.65;69.84;99290.06;5113343;28;20058;-81
2022/09/10 08:22:51;;;;;;;4.05;2.00;;;;;;;24.10;70.39;99286.28;5113339;28;20386;-81
2022/09/10 08:25:18;;;;;;;3.00;1.77;;;;;;;23.75;72.07;99290.06;5113427;28;20033;-81
2022/09/10 08:27:44;;;;;;;5.07;1.92;;;;;;;23.69;74.02;99289.91;5113200;28;20039;-81
2022/09/10 08:30:10;;;;;;;5.10;2.20;;;;;;;23.67;73.48;99287.41;5113733;27;20020;-81
2022/09/10 08:32:35;;;;;;;5.45;2.22;;;;;;;23.46;73.08;99297.63;5113029;28;20032;-81
2022/09/10 08:35:03;;;;;;;3.58;2.05;;;;;;;23.05;73.18;99286.88;5113309;28;20377;-81
2022/09/10 08:37:31;;;;;;;2.15;1.80;;;;;;;22.70;73.93;99290.50;5112923;28;20456;-81
2022/09/10 08:39:57;;;;;;;5.13;1.83;;;;;;;22.59;74.73;99284.47;5113356;28;20051;-81
2022/09/10 08:42:29;;;;;;;4.70;1.80;;;;;;;22.51;74.65;99294.22;5113296;28;20050;-81
2022/09/10 08:45:20;;;;;;;2.05;1.85;;;;;;;22.32;74.79;99289.94;5113335;28;20015;-81
2022/09/10 08:47:59;;;;;;;2.75;1.80;;;;;;;22.42;77.00;99293.34;5112554;28;20034;-81
2022/09/10 08:50:51;;;;;;;2.03;1.80;;;;;;;22.60;76.08;99301.25;5113143;28;20103;-81
2022/09/10 08:53:25;;;;;;;2.92;1.80;;;;;;;22.76;76.65;99290.72;5113097;28;20463;-81
2022/09/10 08:55:56;;;;;;;3.20;2.08;;;;;;;22.93;76.02;99296.97;5112930;28;20012;-81
2022/09/10 08:58:26;;;;;;;3.83;2.40;;;;;;;22.94;76.32;99308.41;5112651;27;20409;-81
2022/09/10 09:00:53;;;;;;;;;;;;;;;22.90;76.18;99302.59;5113437;28;20022;-81
2022/09/10 09:03:26;;;;;;;4.82;2.08;;;;;;;23.02;74.93;99297.81;5112634;28;19914;-81
2022/09/10 09:05:59;;;;;;;4.75;2.08;;;;;;;23.18;75.12;99302.38;5112568;28;20040;-81
2022/09/10 09:08:28;;;;;;;2.85;1.80;;;;;;;23.01;74.43;99299.66;5112807;28;20023;-81
2022/09/10 09:11:13;;;;;;;4.97;2.30;;;;;;;22.71;73.64;99302.78;5112564;28;20337;-81
2022/09/10 09:14:11;;;;;;;3.30;2.03;;;;;;;22.55;73.29;99306.19;5112479;28;20106;-81
2022/09/10 09:16:45;;;;;;;3.13;1.77;;;;;;;22.39;73.49;99301.59;5112338;28;20111;-81
2022/09/10 09:19:25;;;;;;;5.53;1.60;;;;;;;22.23;72.85;99290.88;5112472;28;20397;-81
2022/09/10 09:21:51;;;;;;;3.05;1.52;;;;;;;22.29;74.85;99288.44;5112347;28;20019;-81
2022/09/10 09:24:38;;;;;;;2.45;1.83;;;;;;;22.64;74.41;99292.78;5112461;28;20574;-81
2022/09/10 09:27:09;;;;;;;3.35;2.13;;;;;;;22.93;74.19;99294.31;5112557;28;20092;-81
2022/09/10 09:29:50;;;;;;;3.85;2.20;;;;;;;23.03;73.89;99284.38;5112143;28;20118;-81
2022/09/10 09:32:19;;;;;;;3.28;1.75;;;;;;;23.30;71.33;99301.06;5112543;28;20031;-81
2022/09/10 09:34:55;;;;;;;4.43;1.60;;;;;;;23.26;69.06;99297.06;5112058;28;20508;-81
2022/09/10 09:37:33;;;;;;;2.38;1.92;;;;;;;23.07;70.95;99291.03;5112373;28;20062;-81
2022/09/10 09:40:39;;;;;;;3.50;1.70;;;;;;;22.94;72.40;99293.31;5112267;28;20104;-80
2022/09/10 09:43:14;;;;;;;4.50;2.08;;;;;;;22.72;73.87;99297.31;5112366;28;20536;-81
2022/09/10 09:45:42;;;;;;;1.80;1.52;;;;;;;22.62;74.06;99283.31;5116452;28;20024;-81
2022/09/10 09:48:16;;;;;;;4.28;1.88;;;;;;;22.72;74.65;99297.31;5116521;27;20106;-81
2022/09/10 09:50:46;;;;;;;4.30;1.98;;;;;;;22.57;74.12;99282.97;5116179;28;20069;-81
2022/09/10 09:53:18;;;;;;;2.47;1.77;;;;;;;22.34;75.16;99280.00;5116562;28;20041;-81
2022/09/10 09:55:48;;;;;;;3.60;2.20;;;;;;;22.27;76.44;99289.56;5116345;28;20015;-81
2022/09/10 09:58:20;;;;;;;3.17;2.28;;;;;;;22.07;76.86;99287.06;5116351;28;20028;-81
2022/09/10 10:00:46;;;;;;;2.05;1.50;;;;;;;22.02;76.40;99283.22;5116111;28;20016;-81
2022/09/10 10:03:21;;;;;;;4.65;1.60;;;;;;;21.93;76.67;99269.88;5116317;27;20102;-81
2022/09/10 10:05:47;;;;;;;4.00;1.88;;;;;;;22.15;75.43;99267.75;5116132;28;20036;-81
2022/09/10 10:08:43;;;;;;;2.90;1.70;;;;;;;22.57;74.00;99277.66;5116297;28;20016;-81
2022/09/10 10:11:09;;;;;;;2.50;1.60;;;;;;;22.94;73.52;99269.41;5072895;28;20029;-81
2022/09/10 10:13:39;;;;;;;1.60;1.50;;;;;;;23.36;71.70;99276.53;5072635;28;20047;-81
2022/09/10 10:16:18;;;;;;;5.22;2.05;;;;;;;23.57;71.81;99273.41;5072831;28;20351;-81
2022/09/10 10:18:45;;;;;;;3.45;1.83;;;;;;;23.57;71.47;99257.47;5072620;28;20020;-81
2022/09/10 10:21:10;;;;;;;3.30;2.03;;;;;;;23.56;71.03;99269.91;5072656;28;20146;-81
2022/09/10 10:23:37;;;;;;;4.25;2.10;;;;;;;23.50;70.99;99256.44;5072406;28;20056;-81
2022/09/10 10:26:30;;;;;;;3.40;2.13;;;;;;;23.54;71.40;99257.78;5072667;28;20464;-81
2022/09/10 10:29:05;;;;;;;4.35;1.63;;;;;;;23.54;70.74;99244.47;5012668;28;20040;-81
2022/09/10 10:31:42;;;;;;;3.22;1.52;;;;;;;23.72;70.46;99258.47;5012984;28;20367;-81
2022/09/10 10:34:22;;;;;;;6.10;1.90;;;;;;;23.90;68.50;99258.34;5012767;28;20041;-81
2022/09/10 10:37:07;;;;;;;5.45;1.95;;;;;;;24.02;67.23;99248.16;5012521;28;20157;-81
2022/09/10 10:40:18;;;;;;;2.15;1.70;;;;;;;24.07;68.47;99254.69;4996252;28;20067;-81
2022/09/10 10:42:54;;;;;;;;;;;;;;;23.94;68.28;99259.69;5012847;28;20515;-81
2022/09/10 10:45:39;;;;;;;3.33;1.60;;;;;;;23.65;67.95;99258.31;5012949;28;19913;-81
2022/09/10 10:48:04;;;;;;;4.32;1.83;;;;;;;23.44;69.33;99262.44;5047325;28;20052;-81
2022/09/10 10:50:53;;;;;;;3.13;1.58;;;;;;;23.19;70.45;99264.19;5072231;28;20361;-81
2022/09/10 10:53:50;;;;;;;3.70;1.60;;;;;;;22.86;71.61;99256.06;5032295;28;20147;-81
2022/09/10 10:56:28;;;;;;;3.25;1.90;;;;;;;22.60;72.17;99250.81;5032081;28;20490;-81
2022/09/10 10:59:33;;;;;;;4.07;2.53;;;;;;;22.45;73.08;99249.72;5031604;28;20593;-81
2022/09/10 11:02:14;;;;;;;2.92;1.65;;;;;;;22.26;73.81;99227.72;5031969;28;20025;-81
2022/09/10 11:04:49;;;;;;;2.38;1.65;;;;;;;22.40;75.10;99239.56;5032778;28;20034;-81
2022/09/10 11:07:38;;;;;;;4.35;1.60;;;;;;;22.55;74.90;99235.34;5051837;28;20025;-81
2022/09/10 11:10:03;;;;;;;3.58;2.35;;;;;;;22.61;73.98;99240.00;5051816;28;20033;-81
2022/09/10 11:12:37;;;;;;;2.65;1.60;;;;;;;22.59;74.39;99231.41;5051801;28;20491;-81
2022/09/10 11:15:21;;;;;;;4.10;1.73;;;;;;;22.57;73.34;99236.00;5051865;28;20517;-81
2022/09/10 11:18:27;;;;;;;4.95;2.15;;;;;;;22.64;73.54;99233.56;5051474;28;20545;-81
2022/09/10 11:21:05;;;;;;;2.60;1.70;;;;;;;22.47;72.00;99222.03;4972746;28;20035;-82
2022/09/10 11:23:37;;;;;;;3.67;1.80;;;;;;;22.51;73.45;99223.38;4972808;28;20392;-83
2022/09/10 11:26:14;;;;;;;4.60;1.60;;;;;;;22.57;73.78;99220.09;4972877;28;20042;-83
2022/09/10 11:28:50;;;;;;;3.00;1.73;;;;;;;22.52;72.22;99222.38;4972869;28;20034;-83
2022/09/10 11:31:39;;;;;;;4.13;1.90;;;;;;;22.30;71.48;99220.28;5025007;28;20142;-83
2022/09/10 11:34:11;;;;;;;3.80;1.70;;;;;;;21.98;71.30;99199.66;5031571;28;20021;-83
2022/09/10 11:37:00;;;;;;;2.97;1.70;;;;;;;21.72;72.29;99205.75;5031101;28;20499;-83
2022/09/10 11:39:40;;;;;;;2.55;1.67;;;;;;;21.64;73.84;99203.88;5031437;28;20394;-83
2022/09/10 11:42:16;;;;;;;3.30;1.80;;;;;;;21.70;73.55;99199.78;5030607;28;20505;-83
2022/09/10 11:44:47;;;;;;;1.42;1.20;;;;;;;21.85;73.26;99202.72;5031046;28;20120;-83